sensor_id;sensor_type;location;lat;lon;timestamp;P1;durP1;ratioP1;P2;durP2;ratioP2
15869;SDS011;63464;51.344;-1.634;2022-11-15T00:01:07;9.10;;;6.40;;
15869;SDS011;63464;51.344;-1.634;2022-11-15T00:03:35;8.43;;;6.60;;
15869;SDS011;63464;51.344;-1.634;2022-11-15T00:06:04;8.73;;;7.10;;
15869;SDS011;63464;51.344;-1.634;2022-11-15T00:08:32;7.55;;;6.00;;
15869;SDS011;63464;51.344;-1.634;2022-11-15T00:11:01;9.57;;;5.83;;
15869;SDS011;63464;51.344;-1.634;2022-11-15T00:13:30;11.33;;;7.30;;
15869;SDS011;63464;51.344;-1.634;2022-11-15T00:15:59;11.27;;;6.20;;
15869;SDS011;63464;51.344;-1.634;2022-11-15T00:18:28;10.07;;;5.80;;
15869;SDS011;63464;51.344;-1.634;2022-11-15T00:21:03;9.10;;;6.10;;
15869;SDS011;63464;51.344;-1.634;2022-11-15T00:26:00;10.60;;;5.70;;
15869;SDS011;63464;51.344;-1.634;2022-11-15T00:28:29;8.83;;;7.03;;
15869;SDS011;63464;51.344;-1.634;2022-11-15T00:31:00;9.10;;;6.23;;
15869;SDS011;63464;51.344;-1.634;2022-11-15T00:33:29;9.67;;;5.80;;
15869;SDS011;63464;51.344;-1.634;2022-11-15T00:36:00;8.93;;;7.30;;
15869;SDS011;63464;51.344;-1.634;2022-11-15T00:38:31;9.03;;;6.97;;
15869;SDS011;63464;51.344;-1.634;2022-11-15T00:41:00;11.13;;;6.80;;
15869;SDS011;63464;51.344;-1.634;2022-11-15T00:43:29;9.93;;;6.90;;
15869;SDS011;63464;51.344;-1.634;2022-11-15T00:45:57;12.27;;;6.50;;
15869;SDS011;63464;51.344;-1.634;2022-11-15T00:48:25;9.77;;;5.80;;
15869;SDS011;63464;51.344;-1.634;2022-11-15T00:50:54;9.53;;;5.20;;
15869;SDS011;63464;51.344;-1.634;2022-11-15T00:53:22;9.27;;;5.10;;
15869;SDS011;63464;51.344;-1.634;2022-11-15T00:55:51;10.20;;;5.70;;
15869;SDS011;63464;51.344;-1.634;2022-11-15T00:58:19;9.43;;;5.53;;
15869;SDS011;63464;51.344;-1.634;2022-11-15T01:00:48;12.17;;;6.30;;
15869;SDS011;63464;51.344;-1.634;2022-11-15T01:03:16;6.97;;;6.40;;
15869;SDS011;63464;51.344;-1.634;2022-11-15T01:05:45;10.13;;;6.20;;
15869;SDS011;63464;51.344;-1.634;2022-11-15T01:08:14;8.00;;;6.93;;
15869;SDS011;63464;51.344;-1.634;2022-11-15T01:10:42;12.23;;;5.80;;
15869;SDS011;63464;51.344;-1.634;2022-11-15T01:13:11;8.93;;;4.83;;
15869;SDS011;63464;51.344;-1.634;2022-11-15T01:15:40;11.10;;;4.53;;
15869;SDS011;63464;51.344;-1.634;2022-11-15T01:18:09;8.47;;;5.80;;
15869;SDS011;63464;51.344;-1.634;2022-11-15T01:20:39;10.20;;;3.60;;
15869;SDS011;63464;51.344;-1.634;2022-11-15T01:23:09;11.03;;;4.13;;
15869;SDS011;63464;51.344;-1.634;2022-11-15T01:25:38;13.90;;;3.70;;
15869;SDS011;63464;51.344;-1.634;2022-11-15T01:28:06;9.17;;;3.43;;
15869;SDS011;63464;51.344;-1.634;2022-11-15T01:30:36;9.75;;;3.55;;
15869;SDS011;63464;51.344;-1.634;2022-11-15T01:33:04;9.40;;;3.27;;
15869;SDS011;63464;51.344;-1.634;2022-11-15T01:35:32;9.63;;;3.70;;
15869;SDS011;63464;51.344;-1.634;2022-11-15T01:38:01;10.63;;;3.70;;
15869;SDS011;63464;51.344;-1.634;2022-11-15T01:40:29;12.53;;;4.07;;
15869;SDS011;63464;51.344;-1.634;2022-11-15T01:42:58;11.23;;;3.70;;
15869;SDS011;63464;51.344;-1.634;2022-11-15T01:45:26;12.13;;;3.70;;
15869;SDS011;63464;51.344;-1.634;2022-11-15T01:47:54;14.50;;;4.50;;
15869;SDS011;63464;51.344;-1.634;2022-11-15T01:50:23;11.40;;;4.37;;
15869;SDS011;63464;51.344;-1.634;2022-11-15T01:52:53;11.30;;;3.10;;
15869;SDS011;63464;51.344;-1.634;2022-11-15T01:55:22;10.97;;;4.20;;
15869;SDS011;63464;51.344;-1.634;2022-11-15T01:57:53;6.87;;;3.10;;
15869;SDS011;63464;51.344;-1.634;2022-11-15T02:00:22;7.63;;;3.27;;
15869;SDS011;63464;51.344;-1.634;2022-11-15T02:02:51;13.83;;;3.73;;
15869;SDS011;63464;51.344;-1.634;2022-11-15T02:05:19;11.87;;;4.00;;
15869;SDS011;63464;51.344;-1.634;2022-11-15T02:07:47;8.07;;;4.17;;
15869;SDS011;63464;51.344;-1.634;2022-11-15T02:10:18;10.10;;;3.37;;
15869;SDS011;63464;51.344;-1.634;2022-11-15T02:12:47;8.80;;;4.00;;
15869;SDS011;63464;51.344;-1.634;2022-11-15T02:15:15;11.33;;;3.60;;
15869;SDS011;63464;51.344;-1.634;2022-11-15T02:17:47;9.13;;;4.03;;
15869;SDS011;63464;51.344;-1.634;2022-11-15T02:23:11;14.23;;;4.50;;
15869;SDS011;63464;51.344;-1.634;2022-11-15T02:25:43;13.23;;;3.93;;
15869;SDS011;63464;51.344;-1.634;2022-11-15T02:28:22;10.67;;;4.07;;
15869;SDS011;63464;51.344;-1.634;2022-11-15T02:30:52;13.23;;;4.30;;
15869;SDS011;63464;51.344;-1.634;2022-11-15T02:33:25;12.13;;;4.30;;
15869;SDS011;63464;51.344;-1.634;2022-11-15T02:35:57;11.37;;;5.03;;
15869;SDS011;63464;51.344;-1.634;2022-11-15T02:38:28;14.90;;;4.50;;
15869;SDS011;63464;51.344;-1.634;2022-11-15T02:40:57;15.63;;;4.67;;
15869;SDS011;63464;51.344;-1.634;2022-11-15T02:43:28;10.57;;;4.80;;
15869;SDS011;63464;51.344;-1.634;2022-11-15T02:46:26;13.40;;;4.73;;
15869;SDS011;63464;51.344;-1.634;2022-11-15T02:48:56;16.03;;;4.73;;
15869;SDS011;63464;51.344;-1.634;2022-11-15T02:51:25;16.00;;;5.43;;
15869;SDS011;63464;51.344;-1.634;2022-11-15T02:53:53;11.27;;;4.93;;
15869;SDS011;63464;51.344;-1.634;2022-11-15T02:56:22;13.63;;;4.53;;
15869;SDS011;63464;51.344;-1.634;2022-11-15T02:58:59;11.40;;;5.30;;
15869;SDS011;63464;51.344;-1.634;2022-11-15T03:01:31;15.67;;;5.33;;
15869;SDS011;63464;51.344;-1.634;2022-11-15T03:04:02;14.10;;;5.60;;
15869;SDS011;63464;51.344;-1.634;2022-11-15T03:06:31;13.17;;;5.60;;
15869;SDS011;63464;51.344;-1.634;2022-11-15T03:09:03;12.30;;;5.40;;
15869;SDS011;63464;51.344;-1.634;2022-11-15T03:11:32;14.03;;;5.40;;
15869;SDS011;63464;51.344;-1.634;2022-11-15T03:14:05;11.50;;;5.80;;
15869;SDS011;63464;51.344;-1.634;2022-11-15T03:16:34;11.53;;;5.73;;
15869;SDS011;63464;51.344;-1.634;2022-11-15T03:19:04;10.03;;;6.13;;
15869;SDS011;63464;51.344;-1.634;2022-11-15T03:21:33;11.67;;;6.23;;
15869;SDS011;63464;51.344;-1.634;2022-11-15T03:24:02;11.33;;;6.33;;
15869;SDS011;63464;51.344;-1.634;2022-11-15T03:26:32;13.97;;;6.20;;
15869;SDS011;63464;51.344;-1.634;2022-11-15T03:29:03;9.77;;;6.70;;
15869;SDS011;63464;51.344;-1.634;2022-11-15T03:31:32;13.15;;;6.80;;
15869;SDS011;63464;51.344;-1.634;2022-11-15T03:34:19;16.07;;;6.40;;
15869;SDS011;63464;51.344;-1.634;2022-11-15T03:36:47;12.65;;;5.80;;
15869;SDS011;63464;51.344;-1.634;2022-11-15T03:39:17;10.93;;;6.23;;
15869;SDS011;63464;51.344;-1.634;2022-11-15T03:41:47;10.77;;;6.70;;
15869;SDS011;63464;51.344;-1.634;2022-11-15T03:44:17;11.47;;;6.37;;
15869;SDS011;63464;51.344;-1.634;2022-11-15T03:46:47;17.10;;;6.50;;
15869;SDS011;63464;51.344;-1.634;2022-11-15T03:49:19;10.57;;;7.03;;
15869;SDS011;63464;51.344;-1.634;2022-11-15T03:51:47;11.67;;;6.37;;
15869;SDS011;63464;51.344;-1.634;2022-11-15T03:54:15;12.57;;;6.67;;
15869;SDS011;63464;51.344;-1.634;2022-11-15T03:56:43;11.63;;;6.87;;
15869;SDS011;63464;51.344;-1.634;2022-11-15T03:59:12;11.50;;;6.37;;
15869;SDS011;63464;51.344;-1.634;2022-11-15T04:01:40;11.47;;;6.10;;
15869;SDS011;63464;51.344;-1.634;2022-11-15T04:04:09;9.20;;;6.43;;
15869;SDS011;63464;51.344;-1.634;2022-11-15T04:06:37;10.67;;;6.20;;
15869;SDS011;63464;51.344;-1.634;2022-11-15T04:09:06;9.03;;;5.77;;
15869;SDS011;63464;51.344;-1.634;2022-11-15T04:11:35;8.53;;;5.30;;
15869;SDS011;63464;51.344;-1.634;2022-11-15T04:14:03;5.77;;;5.17;;
15869;SDS011;63464;51.344;-1.634;2022-11-15T04:16:32;6.53;;;4.63;;
15869;SDS011;63464;51.344;-1.634;2022-11-15T04:19:00;7.93;;;5.30;;
15869;SDS011;63464;51.344;-1.634;2022-11-15T04:21:46;5.80;;;5.17;;
15869;SDS011;63464;51.344;-1.634;2022-11-15T04:24:32;7.60;;;4.50;;
15869;SDS011;63464;51.344;-1.634;2022-11-15T04:27:01;6.80;;;4.67;;
15869;SDS011;63464;51.344;-1.634;2022-11-15T04:29:30;8.40;;;4.90;;
15869;SDS011;63464;51.344;-1.634;2022-11-15T04:32:06;7.23;;;4.40;;
15869;SDS011;63464;51.344;-1.634;2022-11-15T04:34:34;4.70;;;4.00;;
15869;SDS011;63464;51.344;-1.634;2022-11-15T04:37:03;7.30;;;4.27;;
15869;SDS011;63464;51.344;-1.634;2022-11-15T04:39:40;5.00;;;4.00;;
15869;SDS011;63464;51.344;-1.634;2022-11-15T04:42:08;5.23;;;4.10;;
15869;SDS011;63464;51.344;-1.634;2022-11-15T04:44:37;3.87;;;3.57;;
15869;SDS011;63464;51.344;-1.634;2022-11-15T04:47:06;4.43;;;3.70;;
15869;SDS011;63464;51.344;-1.634;2022-11-15T04:49:34;4.63;;;4.07;;
15869;SDS011;63464;51.344;-1.634;2022-11-15T04:52:03;6.53;;;3.70;;
15869;SDS011;63464;51.344;-1.634;2022-11-15T04:54:31;6.80;;;4.10;;
15869;SDS011;63464;51.344;-1.634;2022-11-15T04:57:00;5.10;;;4.10;;
15869;SDS011;63464;51.344;-1.634;2022-11-15T04:59:28;4.57;;;4.20;;
15869;SDS011;63464;51.344;-1.634;2022-11-15T05:01:57;4.67;;;4.27;;
15869;SDS011;63464;51.344;-1.634;2022-11-15T05:04:25;4.63;;;3.63;;
15869;SDS011;63464;51.344;-1.634;2022-11-15T05:06:53;6.10;;;3.93;;
15869;SDS011;63464;51.344;-1.634;2022-11-15T05:09:22;5.60;;;4.27;;
15869;SDS011;63464;51.344;-1.634;2022-11-15T05:11:50;5.03;;;4.53;;
15869;SDS011;63464;51.344;-1.634;2022-11-15T05:14:18;4.83;;;4.07;;
15869;SDS011;63464;51.344;-1.634;2022-11-15T05:16:47;4.80;;;4.43;;
15869;SDS011;63464;51.344;-1.634;2022-11-15T05:19:16;4.47;;;4.17;;
15869;SDS011;63464;51.344;-1.634;2022-11-15T05:21:44;4.83;;;4.20;;
15869;SDS011;63464;51.344;-1.634;2022-11-15T05:24:12;4.13;;;3.70;;
15869;SDS011;63464;51.344;-1.634;2022-11-15T05:26:40;5.17;;;4.67;;
15869;SDS011;63464;51.344;-1.634;2022-11-15T05:29:09;5.90;;;5.27;;
15869;SDS011;63464;51.344;-1.634;2022-11-15T05:31:40;6.20;;;4.80;;
15869;SDS011;63464;51.344;-1.634;2022-11-15T05:34:09;6.10;;;5.50;;
15869;SDS011;63464;51.344;-1.634;2022-11-15T05:36:38;5.80;;;5.30;;
15869;SDS011;63464;51.344;-1.634;2022-11-15T05:39:07;6.63;;;5.03;;
15869;SDS011;63464;51.344;-1.634;2022-11-15T05:41:37;6.90;;;5.27;;
15869;SDS011;63464;51.344;-1.634;2022-11-15T05:44:06;5.83;;;5.23;;
15869;SDS011;63464;51.344;-1.634;2022-11-15T05:46:36;9.90;;;5.40;;
15869;SDS011;63464;51.344;-1.634;2022-11-15T05:49:06;7.80;;;5.07;;
15869;SDS011;63464;51.344;-1.634;2022-11-15T05:51:36;8.37;;;5.63;;
15869;SDS011;63464;51.344;-1.634;2022-11-15T05:54:04;5.93;;;4.70;;
15869;SDS011;63464;51.344;-1.634;2022-11-15T05:56:32;5.13;;;4.73;;
15869;SDS011;63464;51.344;-1.634;2022-11-15T05:59:01;6.13;;;5.53;;
15869;SDS011;63464;51.344;-1.634;2022-11-15T06:01:30;10.00;;;4.50;;
15869;SDS011;63464;51.344;-1.634;2022-11-15T06:03:58;6.03;;;4.90;;
15869;SDS011;63464;51.344;-1.634;2022-11-15T06:06:27;5.83;;;4.60;;
15869;SDS011;63464;51.344;-1.634;2022-11-15T06:08:56;4.67;;;4.20;;
15869;SDS011;63464;51.344;-1.634;2022-11-15T06:11:24;6.73;;;5.10;;
15869;SDS011;63464;51.344;-1.634;2022-11-15T06:13:53;5.30;;;4.80;;
15869;SDS011;63464;51.344;-1.634;2022-11-15T06:16:21;6.00;;;5.30;;
15869;SDS011;63464;51.344;-1.634;2022-11-15T06:18:50;6.80;;;5.63;;
15869;SDS011;63464;51.344;-1.634;2022-11-15T06:21:18;7.27;;;5.23;;
15869;SDS011;63464;51.344;-1.634;2022-11-15T06:23:47;6.77;;;4.93;;
15869;SDS011;63464;51.344;-1.634;2022-11-15T06:26:15;5.97;;;5.50;;
15869;SDS011;63464;51.344;-1.634;2022-11-15T06:28:44;7.80;;;5.00;;
15869;SDS011;63464;51.344;-1.634;2022-11-15T06:31:12;4.80;;;4.33;;
15869;SDS011;63464;51.344;-1.634;2022-11-15T06:33:42;4.97;;;4.40;;
15869;SDS011;63464;51.344;-1.634;2022-11-15T06:36:12;8.13;;;4.90;;
15869;SDS011;63464;51.344;-1.634;2022-11-15T06:38:43;6.07;;;4.77;;
15869;SDS011;63464;51.344;-1.634;2022-11-15T06:41:12;6.17;;;5.67;;
15869;SDS011;63464;51.344;-1.634;2022-11-15T06:43:40;5.70;;;5.07;;
15869;SDS011;63464;51.344;-1.634;2022-11-15T06:46:09;4.83;;;4.03;;
15869;SDS011;63464;51.344;-1.634;2022-11-15T06:48:38;6.03;;;4.53;;
15869;SDS011;63464;51.344;-1.634;2022-11-15T06:51:06;4.83;;;3.70;;
15869;SDS011;63464;51.344;-1.634;2022-11-15T06:53:35;5.57;;;3.90;;
15869;SDS011;63464;51.344;-1.634;2022-11-15T06:56:05;4.77;;;3.90;;
15869;SDS011;63464;51.344;-1.634;2022-11-15T06:58:34;4.67;;;3.93;;
15869;SDS011;63464;51.344;-1.634;2022-11-15T07:01:03;4.93;;;3.63;;
15869;SDS011;63464;51.344;-1.634;2022-11-15T07:03:33;4.07;;;3.60;;
15869;SDS011;63464;51.344;-1.634;2022-11-15T07:06:02;7.10;;;3.80;;
15869;SDS011;63464;51.344;-1.634;2022-11-15T07:08:30;4.07;;;3.10;;
15869;SDS011;63464;51.344;-1.634;2022-11-15T07:10:59;3.60;;;2.87;;
15869;SDS011;63464;51.344;-1.634;2022-11-15T07:13:29;5.00;;;3.47;;
15869;SDS011;63464;51.344;-1.634;2022-11-15T07:16:02;5.30;;;2.97;;
15869;SDS011;63464;51.344;-1.634;2022-11-15T07:18:30;5.37;;;2.63;;
15869;SDS011;63464;51.344;-1.634;2022-11-15T07:21:00;3.60;;;3.30;;
15869;SDS011;63464;51.344;-1.634;2022-11-15T07:23:29;4.57;;;3.87;;
15869;SDS011;63464;51.344;-1.634;2022-11-15T07:25:57;4.47;;;3.90;;
15869;SDS011;63464;51.344;-1.634;2022-11-15T07:28:26;6.27;;;3.70;;
15869;SDS011;63464;51.344;-1.634;2022-11-15T07:30:54;4.37;;;3.47;;
15869;SDS011;63464;51.344;-1.634;2022-11-15T07:33:23;6.27;;;4.23;;
15869;SDS011;63464;51.344;-1.634;2022-11-15T07:35:51;5.53;;;3.33;;
15869;SDS011;63464;51.344;-1.634;2022-11-15T07:38:21;4.17;;;3.80;;
15869;SDS011;63464;51.344;-1.634;2022-11-15T07:40:55;3.77;;;3.57;;
15869;SDS011;63464;51.344;-1.634;2022-11-15T07:43:24;3.67;;;3.33;;
15869;SDS011;63464;51.344;-1.634;2022-11-15T07:45:54;3.73;;;3.07;;
15869;SDS011;63464;51.344;-1.634;2022-11-15T07:48:23;5.33;;;3.73;;
15869;SDS011;63464;51.344;-1.634;2022-11-15T07:50:51;4.90;;;3.97;;
15869;SDS011;63464;51.344;-1.634;2022-11-15T07:53:20;4.53;;;3.07;;
15869;SDS011;63464;51.344;-1.634;2022-11-15T07:55:48;4.23;;;4.00;;
15869;SDS011;63464;51.344;-1.634;2022-11-15T07:58:17;5.23;;;4.73;;
15869;SDS011;63464;51.344;-1.634;2022-11-15T08:00:45;7.00;;;4.33;;
15869;SDS011;63464;51.344;-1.634;2022-11-15T08:03:14;5.43;;;3.60;;
15869;SDS011;63464;51.344;-1.634;2022-11-15T08:05:43;6.67;;;5.13;;
15869;SDS011;63464;51.344;-1.634;2022-11-15T08:08:13;4.77;;;4.20;;
15869;SDS011;63464;51.344;-1.634;2022-11-15T08:10:42;3.57;;;3.33;;
15869;SDS011;63464;51.344;-1.634;2022-11-15T08:13:10;3.60;;;3.40;;
15869;SDS011;63464;51.344;-1.634;2022-11-15T08:15:39;4.60;;;4.00;;
15869;SDS011;63464;51.344;-1.634;2022-11-15T08:18:10;3.90;;;3.27;;
15869;SDS011;63464;51.344;-1.634;2022-11-15T08:20:39;3.80;;;3.07;;
15869;SDS011;63464;51.344;-1.634;2022-11-15T08:23:07;5.30;;;4.80;;
15869;SDS011;63464;51.344;-1.634;2022-11-15T08:25:36;5.80;;;5.50;;
15869;SDS011;63464;51.344;-1.634;2022-11-15T08:28:05;6.30;;;3.93;;
15869;SDS011;63464;51.344;-1.634;2022-11-15T08:30:35;4.17;;;3.77;;
15869;SDS011;63464;51.344;-1.634;2022-11-15T08:33:03;4.47;;;4.10;;
15869;SDS011;63464;51.344;-1.634;2022-11-15T08:35:32;4.73;;;4.40;;
15869;SDS011;63464;51.344;-1.634;2022-11-15T08:38:01;4.57;;;4.27;;
15869;SDS011;63464;51.344;-1.634;2022-11-15T08:40:29;6.27;;;4.00;;
15869;SDS011;63464;51.344;-1.634;2022-11-15T08:42:57;8.23;;;7.73;;
15869;SDS011;63464;51.344;-1.634;2022-11-15T08:45:27;5.40;;;5.10;;
15869;SDS011;63464;51.344;-1.634;2022-11-15T08:47:56;6.53;;;6.13;;
15869;SDS011;63464;51.344;-1.634;2022-11-15T08:50:25;8.20;;;7.70;;
15869;SDS011;63464;51.344;-1.634;2022-11-15T08:52:53;5.50;;;5.20;;
15869;SDS011;63464;51.344;-1.634;2022-11-15T08:55:21;7.27;;;6.67;;
15869;SDS011;63464;51.344;-1.634;2022-11-15T08:57:50;8.60;;;7.90;;
15869;SDS011;63464;51.344;-1.634;2022-11-15T09:00:19;6.60;;;6.10;;
15869;SDS011;63464;51.344;-1.634;2022-11-15T09:02:47;6.50;;;6.20;;
15869;SDS011;63464;51.344;-1.634;2022-11-15T09:05:16;7.10;;;6.60;;
15869;SDS011;63464;51.344;-1.634;2022-11-15T09:07:45;8.40;;;7.70;;
15869;SDS011;63464;51.344;-1.634;2022-11-15T09:10:14;5.50;;;5.10;;
15869;SDS011;63464;51.344;-1.634;2022-11-15T09:12:43;5.70;;;4.27;;
15869;SDS011;63464;51.344;-1.634;2022-11-15T09:15:12;6.10;;;5.70;;
15869;SDS011;63464;51.344;-1.634;2022-11-15T09:17:40;5.60;;;5.20;;
15869;SDS011;63464;51.344;-1.634;2022-11-15T09:20:09;4.73;;;4.37;;
15869;SDS011;63464;51.344;-1.634;2022-11-15T09:22:38;5.87;;;5.10;;
15869;SDS011;63464;51.344;-1.634;2022-11-15T09:25:08;5.87;;;5.20;;
15869;SDS011;63464;51.344;-1.634;2022-11-15T09:27:36;8.07;;;7.67;;
15869;SDS011;63464;51.344;-1.634;2022-11-15T09:30:05;7.10;;;6.60;;
15869;SDS011;63464;51.344;-1.634;2022-11-15T09:32:34;5.40;;;5.00;;
15869;SDS011;63464;51.344;-1.634;2022-11-15T09:35:03;6.00;;;5.60;;
15869;SDS011;63464;51.344;-1.634;2022-11-15T09:37:32;6.87;;;6.57;;
15869;SDS011;63464;51.344;-1.634;2022-11-15T09:40:01;6.47;;;5.10;;
15869;SDS011;63464;51.344;-1.634;2022-11-15T09:42:34;6.77;;;6.27;;
15869;SDS011;63464;51.344;-1.634;2022-11-15T09:45:08;6.77;;;6.10;;
15869;SDS011;63464;51.344;-1.634;2022-11-15T09:50:38;5.93;;;5.43;;
15869;SDS011;63464;51.344;-1.634;2022-11-15T09:53:09;5.75;;;5.35;;
15869;SDS011;63464;51.344;-1.634;2022-11-15T09:55:40;7.73;;;7.07;;
15869;SDS011;63464;51.344;-1.634;2022-11-15T09:58:10;7.55;;;7.10;;
15869;SDS011;63464;51.344;-1.634;2022-11-15T10:00:41;7.20;;;6.85;;
15869;SDS011;63464;51.344;-1.634;2022-11-15T10:03:11;7.37;;;6.87;;
15869;SDS011;63464;51.344;-1.634;2022-11-15T10:05:40;7.20;;;6.80;;
15869;SDS011;63464;51.344;-1.634;2022-11-15T10:08:13;6.53;;;6.13;;
15869;SDS011;63464;51.344;-1.634;2022-11-15T10:10:42;6.67;;;6.27;;
15869;SDS011;63464;51.344;-1.634;2022-11-15T10:13:12;5.10;;;4.87;;
15869;SDS011;63464;51.344;-1.634;2022-11-15T10:15:42;6.47;;;6.17;;
15869;SDS011;63464;51.344;-1.634;2022-11-15T10:18:15;4.43;;;4.20;;
15869;SDS011;63464;51.344;-1.634;2022-11-15T10:20:48;3.50;;;3.30;;
15869;SDS011;63464;51.344;-1.634;2022-11-15T10:23:18;4.90;;;4.40;;
15869;SDS011;63464;51.344;-1.634;2022-11-15T10:25:47;4.90;;;4.40;;
15869;SDS011;63464;51.344;-1.634;2022-11-15T10:28:17;4.67;;;4.27;;
15869;SDS011;63464;51.344;-1.634;2022-11-15T10:30:51;5.77;;;4.63;;
15869;SDS011;63464;51.344;-1.634;2022-11-15T10:33:25;4.60;;;3.80;;
15869;SDS011;63464;51.344;-1.634;2022-11-15T10:36:14;6.33;;;3.80;;
15869;SDS011;63464;51.344;-1.634;2022-11-15T10:38:53;5.33;;;3.80;;
15869;SDS011;63464;51.344;-1.634;2022-11-15T10:41:22;8.87;;;4.00;;
15869;SDS011;63464;51.344;-1.634;2022-11-15T10:44:02;6.57;;;3.90;;
15869;SDS011;63464;51.344;-1.634;2022-11-15T10:46:31;13.83;;;4.17;;
15869;SDS011;63464;51.344;-1.634;2022-11-15T10:49:10;12.53;;;4.07;;
15869;SDS011;63464;51.344;-1.634;2022-11-15T10:51:39;16.47;;;4.60;;
15869;SDS011;63464;51.344;-1.634;2022-11-15T10:54:06;11.10;;;4.30;;
15869;SDS011;63464;51.344;-1.634;2022-11-15T10:56:37;9.83;;;4.13;;
15869;SDS011;63464;51.344;-1.634;2022-11-15T10:59:09;11.20;;;4.27;;
15869;SDS011;63464;51.344;-1.634;2022-11-15T11:01:35;13.27;;;4.53;;
15869;SDS011;63464;51.344;-1.634;2022-11-15T11:04:07;10.83;;;4.43;;
15869;SDS011;63464;51.344;-1.634;2022-11-15T11:06:46;13.37;;;4.80;;
15869;SDS011;63464;51.344;-1.634;2022-11-15T11:09:21;11.03;;;4.20;;
15869;SDS011;63464;51.344;-1.634;2022-11-15T11:11:50;9.87;;;4.10;;
15869;SDS011;63464;51.344;-1.634;2022-11-15T11:14:21;7.97;;;3.73;;
15869;SDS011;63464;51.344;-1.634;2022-11-15T11:16:50;9.90;;;4.43;;
15869;SDS011;63464;51.344;-1.634;2022-11-15T11:19:30;12.47;;;4.17;;
15869;SDS011;63464;51.344;-1.634;2022-11-15T11:22:01;12.63;;;4.53;;
15869;SDS011;63464;51.344;-1.634;2022-11-15T11:24:32;10.07;;;4.97;;
15869;SDS011;63464;51.344;-1.634;2022-11-15T11:27:06;6.10;;;5.50;;
15869;SDS011;63464;51.344;-1.634;2022-11-15T11:29:41;4.20;;;3.90;;
15869;SDS011;63464;51.344;-1.634;2022-11-15T11:32:14;3.90;;;3.70;;
15869;SDS011;63464;51.344;-1.634;2022-11-15T11:34:43;2.70;;;2.50;;
15869;SDS011;63464;51.344;-1.634;2022-11-15T11:37:12;3.13;;;2.57;;
15869;SDS011;63464;51.344;-1.634;2022-11-15T11:39:43;3.30;;;2.60;;
15869;SDS011;63464;51.344;-1.634;2022-11-15T11:42:16;2.80;;;2.43;;
15869;SDS011;63464;51.344;-1.634;2022-11-15T11:44:46;3.00;;;2.70;;
15869;SDS011;63464;51.344;-1.634;2022-11-15T11:47:16;2.30;;;2.10;;
15869;SDS011;63464;51.344;-1.634;2022-11-15T11:49:46;3.37;;;2.80;;
15869;SDS011;63464;51.344;-1.634;2022-11-15T11:52:16;4.93;;;2.43;;
15869;SDS011;63464;51.344;-1.634;2022-11-15T11:54:51;2.60;;;2.40;;
15869;SDS011;63464;51.344;-1.634;2022-11-15T11:57:23;3.73;;;2.90;;
15869;SDS011;63464;51.344;-1.634;2022-11-15T11:59:55;4.90;;;4.50;;
15869;SDS011;63464;51.344;-1.634;2022-11-15T12:02:27;3.40;;;3.13;;
15869;SDS011;63464;51.344;-1.634;2022-11-15T12:04:57;2.57;;;2.37;;
15869;SDS011;63464;51.344;-1.634;2022-11-15T12:07:27;2.63;;;2.43;;
15869;SDS011;63464;51.344;-1.634;2022-11-15T12:09:58;2.77;;;2.50;;
15869;SDS011;63464;51.344;-1.634;2022-11-15T12:12:29;2.83;;;2.20;;
15869;SDS011;63464;51.344;-1.634;2022-11-15T12:14:59;4.33;;;2.90;;
15869;SDS011;63464;51.344;-1.634;2022-11-15T12:17:29;3.83;;;3.50;;
15869;SDS011;63464;51.344;-1.634;2022-11-15T12:19:59;3.67;;;3.37;;
15869;SDS011;63464;51.344;-1.634;2022-11-15T12:22:32;3.60;;;3.30;;
15869;SDS011;63464;51.344;-1.634;2022-11-15T12:25:00;3.47;;;2.20;;
15869;SDS011;63464;51.344;-1.634;2022-11-15T12:27:31;2.90;;;2.60;;
15869;SDS011;63464;51.344;-1.634;2022-11-15T12:30:02;2.93;;;2.17;;
15869;SDS011;63464;51.344;-1.634;2022-11-15T12:32:31;4.93;;;2.83;;
15869;SDS011;63464;51.344;-1.634;2022-11-15T12:35:00;4.03;;;2.93;;
15869;SDS011;63464;51.344;-1.634;2022-11-15T12:37:48;4.43;;;3.97;;
15869;SDS011;63464;51.344;-1.634;2022-11-15T12:40:19;4.03;;;3.53;;
15869;SDS011;63464;51.344;-1.634;2022-11-15T12:45:45;4.50;;;4.10;;
15869;SDS011;63464;51.344;-1.634;2022-11-15T12:50:59;5.27;;;4.00;;
15869;SDS011;63464;51.344;-1.634;2022-11-15T12:53:28;6.40;;;4.80;;
15869;SDS011;63464;51.344;-1.634;2022-11-15T12:56:09;4.43;;;3.40;;
15869;SDS011;63464;51.344;-1.634;2022-11-15T12:58:41;5.03;;;3.77;;
15869;SDS011;63464;51.344;-1.634;2022-11-15T13:01:10;4.33;;;3.40;;
15869;SDS011;63464;51.344;-1.634;2022-11-15T13:06:45;4.00;;;3.60;;
15869;SDS011;63464;51.344;-1.634;2022-11-15T13:12:00;6.13;;;4.20;;
15869;SDS011;63464;51.344;-1.634;2022-11-15T13:14:48;7.63;;;4.33;;
15869;SDS011;63464;51.344;-1.634;2022-11-15T13:23:00;7.40;;;4.70;;
15869;SDS011;63464;51.344;-1.634;2022-11-15T13:25:52;4.87;;;4.47;;
15869;SDS011;63464;51.344;-1.634;2022-11-15T13:28:21;7.77;;;4.37;;
15869;SDS011;63464;51.344;-1.634;2022-11-15T13:30:51;4.60;;;3.50;;
15869;SDS011;63464;51.344;-1.634;2022-11-15T13:33:20;4.77;;;3.27;;
15869;SDS011;63464;51.344;-1.634;2022-11-15T13:35:51;6.33;;;3.90;;
15869;SDS011;63464;51.344;-1.634;2022-11-15T13:38:25;6.10;;;3.67;;
15869;SDS011;63464;51.344;-1.634;2022-11-15T13:40:54;7.10;;;3.80;;
15869;SDS011;63464;51.344;-1.634;2022-11-15T13:43:27;7.60;;;4.23;;
15869;SDS011;63464;51.344;-1.634;2022-11-15T13:46:04;6.93;;;5.63;;
15869;SDS011;63464;51.344;-1.634;2022-11-15T13:48:32;13.03;;;8.50;;
15869;SDS011;63464;51.344;-1.634;2022-11-15T13:51:01;8.63;;;6.03;;
15869;SDS011;63464;51.344;-1.634;2022-11-15T13:53:31;6.10;;;5.07;;
15869;SDS011;63464;51.344;-1.634;2022-11-15T13:56:00;7.57;;;4.63;;
15869;SDS011;63464;51.344;-1.634;2022-11-15T13:58:30;9.03;;;7.10;;
15869;SDS011;63464;51.344;-1.634;2022-11-15T14:01:00;8.67;;;4.30;;
15869;SDS011;63464;51.344;-1.634;2022-11-15T14:03:29;8.80;;;4.90;;
15869;SDS011;63464;51.344;-1.634;2022-11-15T14:06:02;9.13;;;5.83;;
15869;SDS011;63464;51.344;-1.634;2022-11-15T14:08:31;7.70;;;5.13;;
15869;SDS011;63464;51.344;-1.634;2022-11-15T14:11:06;12.10;;;5.50;;
15869;SDS011;63464;51.344;-1.634;2022-11-15T14:13:35;7.87;;;4.90;;
15869;SDS011;63464;51.344;-1.634;2022-11-15T14:16:14;5.73;;;4.80;;
15869;SDS011;63464;51.344;-1.634;2022-11-15T14:18:44;7.13;;;4.40;;
15869;SDS011;63464;51.344;-1.634;2022-11-15T14:21:13;8.47;;;4.17;;
15869;SDS011;63464;51.344;-1.634;2022-11-15T14:23:42;6.17;;;3.97;;
15869;SDS011;63464;51.344;-1.634;2022-11-15T14:26:26;7.80;;;4.30;;
15869;SDS011;63464;51.344;-1.634;2022-11-15T14:28:55;5.55;;;4.45;;
15869;SDS011;63464;51.344;-1.634;2022-11-15T14:31:24;5.60;;;5.05;;
15869;SDS011;63464;51.344;-1.634;2022-11-15T14:33:53;7.80;;;5.10;;
15869;SDS011;63464;51.344;-1.634;2022-11-15T14:36:21;5.97;;;4.67;;
15869;SDS011;63464;51.344;-1.634;2022-11-15T14:38:50;5.53;;;4.10;;
15869;SDS011;63464;51.344;-1.634;2022-11-15T14:41:19;6.67;;;4.90;;
15869;SDS011;63464;51.344;-1.634;2022-11-15T14:43:48;8.50;;;5.97;;
15869;SDS011;63464;51.344;-1.634;2022-11-15T14:46:17;5.70;;;5.20;;
15869;SDS011;63464;51.344;-1.634;2022-11-15T14:48:45;8.23;;;6.67;;
15869;SDS011;63464;51.344;-1.634;2022-11-15T14:51:16;8.77;;;6.40;;
15869;SDS011;63464;51.344;-1.634;2022-11-15T14:53:45;9.50;;;6.57;;
15869;SDS011;63464;51.344;-1.634;2022-11-15T14:56:14;5.20;;;4.60;;
15869;SDS011;63464;51.344;-1.634;2022-11-15T14:58:43;4.63;;;4.13;;
15869;SDS011;63464;51.344;-1.634;2022-11-15T15:01:13;5.27;;;4.77;;
15869;SDS011;63464;51.344;-1.634;2022-11-15T15:03:42;5.53;;;4.30;;
15869;SDS011;63464;51.344;-1.634;2022-11-15T15:06:11;6.63;;;3.87;;
15869;SDS011;63464;51.344;-1.634;2022-11-15T15:08:41;3.85;;;3.50;;
15869;SDS011;63464;51.344;-1.634;2022-11-15T15:11:10;5.20;;;3.80;;
15869;SDS011;63464;51.344;-1.634;2022-11-15T15:13:40;7.27;;;4.17;;